Time;durP1;ratioP1;P1;durP2;ratioP2;P2;SDS_P1;SDS_P2;PMS_P1;PMS_P2;Temp;Humidity;BMP_temperature;BMP_pressure;BME280_temperature;BME280_humidity;BME280_pressure;Samples;Min_cycle;Max_cycle;Signal;HPM_P1;HPM_P2
2024/01/07 00:00:53;;;;;;;;;;;;;;;18.82;63.13;99575.44;7389288;19;1578;-35
2024/01/07 00:03:22;;;;;;;;;;;;;;;18.77;63.27;99585.78;7389365;19;1548;-35
2024/01/07 00:05:52;;;;;;;;;;;;;;;18.72;63.00;99596.13;7387921;19;1397;-35
2024/01/07 00:08:21;;;;;;;;;;;;;;;18.71;63.27;99589.13;7386427;19;1265;-35
2024/01/07 00:10:49;;;;;;;;;;;;;;;18.74;63.37;99586.09;7383748;19;1854;-35
2024/01/07 00:13:18;;;;;;;;;;;;;;;18.74;63.00;99594.13;7379093;19;1839;-35
2024/01/07 00:15:46;;;;;;;;;;;;;;;18.03;63.15;99484.63;7388928;19;1588;-34
2024/01/07 00:18:15;;;;;;;;;;;;;;;18.68;63.09;99592.94;7389392;19;1422;-34
2024/01/07 00:20:43;;;;;;;;;;;;;;;18.67;63.07;99584.06;7389547;19;1329;-35
2024/01/07 00:23:14;;;;;;;;;;;;;;;18.64;63.10;99578.19;7387295;19;1424;-35
2024/01/07 00:25:42;;;;;;;;;;;;;;;18.61;63.35;99574.00;7389355;19;1497;-34
2024/01/07 00:28:11;;;;;;;;;;;;;;;18.60;63.23;99567.00;7393042;19;1157;-35
2024/01/07 00:30:39;;;;;;;;;;;;;;;18.60;62.71;99577.72;7395842;19;1853;-35
2024/01/07 00:33:07;;;;;;;;;;;;;;;18.58;62.87;99562.78;7397089;19;2157;-34
2024/01/07 00:35:36;;;;;;;;;;;;;;;18.56;62.54;99567.47;7395941;19;1395;-34
2024/01/07 00:38:04;;;;;;;;;;;;;;;18.51;62.64;99557.25;7396091;19;1531;-35
2024/01/07 00:40:35;;;;;;;;;;;;;;;18.47;62.42;99572.78;7397332;19;1065;-34
2024/01/07 00:43:03;;;;;;;;;;;;;;;18.45;62.29;99566.75;7396658;19;1800;-34
2024/01/07 00:45:32;;;;;;;;;;;;;;;18.46;62.07;99551.53;7395974;19;1826;-35
2024/01/07 00:48:00;;;;;;;;;;;;;;;18.45;62.11;99548.03;7394927;19;1572;-35
2024/01/07 00:50:28;;;;;;;;;;;;;;;18.44;62.21;99540.16;7380121;19;1845;-34
2024/01/07 00:52:57;;;;;;;;;;;;;;;18.47;62.01;99558.56;7395922;19;1781;-35
2024/01/07 00:55:25;;;;;;;;;;;;;;;18.46;61.85;99559.56;7395672;19;1648;-34
2024/01/07 00:57:56;;;;;;;;;;;;;;;18.42;62.00;99542.16;7395125;19;1828;-34
2024/01/07 01:00:24;;;;;;;;;;;;;;;18.43;61.75;99554.53;7394974;19;1398;-34
2024/01/07 01:02:53;;;;;;;;;;;;;;;18.44;61.86;99540.16;7394920;19;1489;-34
2024/01/07 01:05:21;;;;;;;;;;;;;;;18.43;61.77;99546.53;7395886;19;1531;-34
2024/01/07 01:07:49;;;;;;;;;;;;;;;18.45;61.64;99544.53;7395730;19;1676;-35
2024/01/07 01:10:18;;;;;;;;;;;;;;;18.43;61.60;99543.84;7397024;19;1839;-35
2024/01/07 01:12:47;;;;;;;;;;;;;;;18.37;61.85;99518.56;7396281;19;1588;-35
2024/01/07 01:15:18;;;;;;;;;;;;;;;18.38;61.96;99508.69;7394992;19;1255;-35
2024/01/07 01:17:47;;;;;;;;;;;;;;;18.37;61.52;99515.06;7396660;19;1830;-35
2024/01/07 01:20:15;;;;;;;;;;;;;;;18.35;61.61;99509.03;7396683;19;1615;-34
2024/01/07 01:22:43;;;;;;;;;;;;;;;18.33;61.73;99508.34;7396351;19;1458;-34
2024/01/07 01:25:12;;;;;;;;;;;;;;;18.34;61.69;99518.88;7397818;19;1037;-34
2024/01/07 01:27:40;;;;;;;;;;;;;;;18.32;61.53;99496.78;7395505;19;1921;-34
2024/01/07 01:30:10;;;;;;;;;;;;;;;18.31;61.55;99537.09;7394086;19;1855;-34
2024/01/07 01:32:41;;;;;;;;;;;;;;;18.31;61.40;99481.75;7395128;19;1359;-34
2024/01/07 01:35:09;;;;;;;;;;;;;;;18.34;61.36;99500.13;7393682;19;1842;-40
2024/01/07 01:37:38;;;;;;;;;;;;;;;18.34;61.41;99488.59;7393964;19;1754;-35
2024/01/07 01:40:07;;;;;;;;;;;;;;;18.33;61.21;99494.97;7393860;19;1493;-34
2024/01/07 01:42:35;;;;;;;;;;;;;;;18.34;61.19;99499.31;7395231;19;1913;-34
2024/01/07 01:45:03;;;;;;;;;;;;;;;18.29;61.30;99497.13;7394740;19;1714;-34
2024/01/07 01:47:32;;;;;;;;;;;;;;;18.34;61.26;99494.78;7393888;19;1422;-34
2024/01/07 01:50:03;;;;;;;;;;;;;;;18.32;61.08;99482.56;7378252;19;1858;-35
2024/01/07 01:52:32;;;;;;;;;;;;;;;18.32;61.14;99498.63;7392099;19;1943;-34
2024/01/07 01:55:01;;;;;;;;;;;;;;;18.29;61.09;99497.13;7394131;19;1813;-34
2024/01/07 01:57:35;;;;;;;;;;;;;;;18.29;60.89;99489.91;7391935;19;1410;-34
2024/01/07 02:00:04;;;;;;;;;;;;;;;18.29;61.01;99467.69;7393628;19;1754;-35
2024/01/07 02:02:34;;;;;;;;;;;;;;;18.32;60.79;99466.50;7394203;19;1556;-34
2024/01/07 02:05:05;;;;;;;;;;;;;;;18.35;60.88;99467.03;7393871;19;1234;-34
2024/01/07 02:07:34;;;;;;;;;;;;;;;18.31;60.89;99467.53;7392658;19;2590;-34
2024/01/07 02:10:02;;;;;;;;;;;;;;;18.27;61.06;99459.81;7394057;19;1267;-45
2024/01/07 02:12:30;;;;;;;;;;;;;;;18.28;61.12;99471.34;7390781;19;1865;-34
2024/01/07 02:14:59;;;;;;;;;;;;;;;18.26;60.90;99466.19;7394362;19;1567;-35
2024/01/07 02:17:27;;;;;;;;;;;;;;;18.31;61.08;99483.59;7392541;19;1404;-35
2024/01/07 02:19:55;;;;;;;;;;;;;;;18.26;60.89;99465.31;7393474;19;1492;-35
2024/01/07 02:22:26;;;;;;;;;;;;;;;18.28;60.82;99461.50;7390879;19;1685;-35
2024/01/07 02:24:57;;;;;;;;;;;;;;;18.25;60.92;99452.97;7392813;19;1512;-35
2024/01/07 02:27:25;;;;;;;;;;;;;;;18.24;60.63;99448.59;7392953;19;1236;-34
2024/01/07 02:29:54;;;;;;;;;;;;;;;18.22;60.86;99430.03;7394593;19;1682;-34
2024/01/07 02:32:22;;;;;;;;;;;;;;;18.23;60.91;99450.44;7391179;19;1855;-35
2024/01/07 02:34:50;;;;;;;;;;;;;;;18.22;60.93;99446.09;7391263;19;1820;-35
2024/01/07 02:37:19;;;;;;;;;;;;;;;18.22;60.66;99451.44;7390374;19;1192;-35
2024/01/07 02:39:47;;;;;;;;;;;;;;;18.22;60.74;99443.41;7393219;19;1018;-35
2024/01/07 02:42:18;;;;;;;;;;;;;;;18.19;60.81;99408.94;7392134;19;1848;-34
2024/01/07 02:44:46;;;;;;;;;;;;;;;18.19;60.68;99402.78;7393187;19;1857;-34
2024/01/07 02:47:15;;;;;;;;;;;;;;;18.17;60.83;99427.00;7392095;19;1591;-34
2024/01/07 02:49:43;;;;;;;;;;;;;;;18.18;60.58;99396.56;7390314;19;1414;-34
2024/01/07 02:52:12;;;;;;;;;;;;;;;18.18;60.54;99409.09;7374843;19;1849;-34
2024/01/07 02:54:40;;;;;;;;;;;;;;;18.16;60.53;99398.56;7392921;19;1423;-35
2024/01/07 02:57:08;;;;;;;;;;;;;;;18.17;60.28;99397.56;7393472;19;1468;-35
2024/01/07 02:59:39;;;;;;;;;;;;;;;18.17;60.64;99381.53;7394903;19;1418;-34
2024/01/07 03:02:07;;;;;;;;;;;;;;;18.19;60.38;99374.16;7394528;19;1519;-34
2024/01/07 03:04:36;;;;;;;;;;;;;;;18.18;60.42;99361.78;7395408;19;1472;-34
2024/01/07 03:07:04;;;;;;;;;;;;;;;18.13;60.25;99358.78;7395895;19;1322;-34
2024/01/07 03:09:32;;;;;;;;;;;;;;;18.13;60.17;99360.63;7394777;19;1943;-35
2024/01/07 03:12:01;;;;;;;;;;;;;;;18.17;60.20;99370.81;7392793;19;1845;-35
2024/01/07 03:14:29;;;;;;;;;;;;;;;18.26;60.46;99368.97;7397048;19;1187;-34
2024/01/07 03:17:00;;;;;;;;;;;;;;;18.91;59.02;99354.81;7395641;19;1928;-34
2024/01/07 03:19:28;;;;;;;;;;;;;;;19.25;58.03;99372.50;7395543;19;1635;-34
2024/01/07 03:21:57;;;;;;;;;;;;;;;18.90;58.64;99368.38;7394246;19;1917;-35
2024/01/07 03:24:26;;;;;;;;;;;;;;;18.55;59.30;99349.78;7390278;19;1743;-34
2024/01/07 03:26:54;;;;;;;;;;;;;;;18.44;59.80;99366.16;7391518;19;1870;-34
2024/01/07 03:29:22;;;;;;;;;;;;;;;18.32;59.84;99335.38;7390700;19;1223;-34
2024/01/07 03:31:52;;;;;;;;;;;;;;;18.26;59.91;99343.09;7389272;19;1855;-35
2024/01/07 03:34:23;;;;;;;;;;;;;;;18.20;59.81;99318.81;7390784;19;1588;-34
2024/01/07 03:36:51;;;;;;;;;;;;;;;18.20;59.96;99345.56;7391617;19;1367;-34
2024/01/07 03:39:20;;;;;;;;;;;;;;;18.21;59.91;99341.91;7391633;19;1583;-34
2024/01/07 03:41:48;;;;;;;;;;;;;;;18.21;59.67;99341.91;7389108;19;1849;-35
2024/01/07 03:44:16;;;;;;;;;;;;;;;18.19;59.98;99333.22;7391240;19;1378;-34
2024/01/07 03:46:45;;;;;;;;;;;;;;;18.03;60.80;99331.34;7391234;19;1516;-34
2024/01/07 03:49:13;;;;;;;;;;;;;;;17.96;61.60;99323.13;7389864;19;1501;-34
2024/01/07 03:51:44;;;;;;;;;;;;;;;17.87;62.32;99321.44;7374952;19;1871;-35
2024/01/07 03:54:13;;;;;;;;;;;;;;;17.96;62.58;99323.13;7391794;19;1230;-34
2024/01/07 03:56:41;;;;;;;;;;;;;;;18.26;62.61;99339.56;7390566;19;1302;-34
2024/01/07 03:59:10;;;;;;;;;;;;;;;18.33;62.55;99337.06;7391870;19;1500;-34
2024/01/07 04:01:38;;;;;;;;;;;;;;;18.35;62.49;99332.38;7392562;19;1846;-34
2024/01/07 04:04:06;;;;;;;;;;;;;;;18.53;62.21;99317.00;7397925;19;1489;-34
2024/01/07 04:06:34;;;;;;;;;;;;;;;18.81;61.77;99332.75;7397926;19;1853;-34
2024/01/07 04:09:06;;;;;;;;;;;;;;;18.88;61.90;99320.34;7395129;19;1829;-34
2024/01/07 04:11:34;;;;;;;;;;;;;;;18.82;62.18;99318.31;7396983;19;1862;-34
2024/01/07 04:14:02;;;;;;;;;;;;;;;18.62;62.46;99310.63;7399276;19;1427;-35
2024/01/07 04:16:31;;;;;;;;;;;;;;;18.49;62.91;99302.28;7397176;19;1852;-35
2024/01/07 04:18:59;;;;;;;;;;;;;;;18.54;63.33;99299.91;7397631;19;1259;-35
2024/01/07 04:21:28;;;;;;;;;;;;;;;18.69;62.97;99305.44;7397076;19;1805;-35
2024/01/07 04:23:56;;;;;;;;;;;;;;;18.77;62.92;99301.91;7397503;19;1723;-36
2024/01/07 04:26:27;;;;;;;;;;;;;;;18.72;63.03;99310.47;7397497;19;1635;-35
2024/01/07 04:28:55;;;;;;;;;;;;;;;18.61;63.21;99300.91;7396103;19;1505;-36
2024/01/07 04:31:23;;;;;;;;;;;;;;;18.48;63.88;99306.81;7395908;19;1853;-35
2024/01/07 04:33:52;;;;;;;;;;;;;;;18.59;63.54;99304.78;7397228;19;1591;-35
2024/01/07 04:36:20;;;;;;;;;;;;;;;18.75;63.49;99312.78;7395424;19;1469;-35
2024/01/07 04:38:49;;;;;;;;;;;;;;;18.72;63.63;99309.59;7397840;19;1476;-35
2024/01/07 04:41:17;;;;;;;;;;;;;;;18.62;63.57;99296.41;7394952;19;1497;-35
2024/01/07 04:43:48;;;;;;;;;;;;;;;18.52;63.92;99295.75;7396684;19;1574;-35
2024/01/07 04:46:16;;;;;;;;;;;;;;;18.39;64.58;99275.69;7395596;19;1429;-36
2024/01/07 04:48:45;;;;;;;;;;;;;;;18.57;64.07;99278.16;7393970;19;1448;-35
2024/01/07 04:51:13;;;;;;;;;;;;;;;18.80;63.83;99281.03;7382548;19;1878;-35
2024/01/07 04:53:41;;;;;;;;;;;;;;;18.67;63.97;99281.50;7397506;19;1900;-35
2024/01/07 04:56:10;;;;;;;;;;;;;;;18.61;64.16;99273.31;7396586;19;1846;-35
2024/01/07 04:58:38;;;;;;;;;;;;;;;18.50;64.42;99255.75;7395719;19;1853;-35
2024/01/07 05:01:09;;;;;;;;;;;;;;;18.50;64.48;99261.09;7395881;19;1953;-36
2024/01/07 05:03:37;;;;;;;;;;;;;;;18.72;64.06;99240.00;7395526;19;1251;-35
2024/01/07 05:06:06;;;;;;;;;;;;;;;18.76;64.03;99227.94;7394503;19;1794;-36
2024/01/07 05:08:34;;;;;;;;;;;;;;;18.73;64.08;99221.09;7392390;19;1255;-35
2024/01/07 05:11:02;;;;;;;;;;;;;;;18.65;64.13;99221.94;7394066;19;1444;-35
2024/01/07 05:13:31;;;;;;;;;;;;;;;18.48;64.80;99210.44;7390447;19;1903;-36
2024/01/07 05:15:59;;;;;;;;;;;;;;;18.54;64.79;99200.88;7396608;19;1433;-36
2024/01/07 05:18:30;;;;;;;;;;;;;;;18.72;64.61;99207.84;7396875;19;1422;-35
2024/01/07 05:20:58;;;;;;;;;;;;;;;18.69;64.46;99193.81;7395596;19;1595;-36
2024/01/07 05:23:26;;;;;;;;;;;;;;;18.64;64.66;99208.72;7395559;19;1651;-35
2024/01/07 05:25:55;;;;;;;;;;;;;;;18.55;64.70;99202.53;7395075;19;1551;-36
2024/01/07 05:28:23;;;;;;;;;;;;;;;18.47;65.06;99200.72;7394617;19;1485;-35
2024/01/07 05:30:52;;;;;;;;;;;;;;;18.60;64.90;99194.00;7394186;19;1267;-36
2024/01/07 05:33:20;;;;;;;;;;;;;;;18.79;64.52;99196.31;7393855;19;1879;-35
2024/01/07 05:35:51;;;;;;;;;;;;;;;18.73;64.64;99188.13;7396742;19;1723;-35
2024/01/07 05:38:19;;;;;;;;;;;;;;;18.69;64.69;99190.31;7395839;19;1822;-35
2024/01/07 05:40:48;;;;;;;;;;;;;;;18.55;65.10;99186.47;7390822;19;2607;-36
2024/01/07 05:43:16;;;;;;;;;;;;;;;18.58;65.14;99178.13;7396059;19;1141;-35
2024/01/07 05:45:44;;;;;;;;;;;;;;;18.69;64.78;99174.22;7396238;19;1703;-35
2024/01/07 05:48:13;;;;;;;;;;;;;;;18.78;64.58;99167.00;7394808;19;1845;-35
2024/01/07 05:50:41;;;;;;;;;;;;;;;18.66;64.97;99158.50;7393408;19;1485;-35
2024/01/07 05:53:12;;;;;;;;;;;;;;;18.55;64.95;99146.34;7381748;19;1844;-35
2024/01/07 05:55:41;;;;;;;;;;;;;;;18.45;65.30;99146.53;7394158;19;1500;-35
2024/01/07 05:58:09;;;;;;;;;;;;;;;18.49;65.42;99134.47;7394815;19;1801;-35
2024/01/07 06:00:37;;;;;;;;;;;;;;;18.71;64.94;99126.69;7393144;19;1455;-35
2024/01/07 06:03:06;;;;;;;;;;;;;;;18.72;64.86;99119.50;7393000;19;1829;-35
2024/01/07 06:05:35;;;;;;;;;;;;;;;18.65;64.98;99111.31;7393749;19;1393;-35
2024/01/07 06:08:03;;;;;;;;;;;;;;;18.51;65.58;99106.69;7391485;19;1204;-36
2024/01/07 06:10:34;;;;;;;;;;;;;;;18.49;65.59;99099.66;7393941;19;1472;-36
2024/01/07 06:13:03;;;;;;;;;;;;;;;18.57;65.36;99088.09;7391163;19;2385;-35
2024/01/07 06:15:31;;;;;;;;;;;;;;;18.73;65.12;99081.84;7394189;19;1492;-35
2024/01/07 06:17:59;;;;;;;;;;;;;;;18.64;65.08;99070.34;7392923;19;1501;-35
2024/01/07 06:20:28;;;;;;;;;;;;;;;18.60;65.18;99061.00;7391156;19;1542;-35
2024/01/07 06:22:56;;;;;;;;;;;;;;;18.40;65.97;99075.78;7392613;19;1520;-36
2024/01/07 06:25:26;;;;;;;;;;;;;;;18.48;65.80;99067.72;7392768;19;1298;-36
2024/01/07 06:27:56;;;;;;;;;;;;;;;18.72;65.41;99084.69;7393829;19;1284;-35
2024/01/07 06:30:25;;;;;;;;;;;;;;;18.75;65.84;99077.13;7393584;19;1925;-36
2024/01/07 06:32:53;;;;;;;;;;;;;;;19.14;65.10;99070.06;7392209;19;1884;-35
2024/01/07 06:35:21;;;;;;;;;;;;;;;19.21;64.99;99084.44;7391048;19;1441;-35
2024/01/07 06:37:50;;;;;;;;;;;;;;;18.99;65.94;99080.72;7390169;19;1782;-35
2024/01/07 06:40:18;;;;;;;;;;;;;;;18.93;66.62;99079.59;7393367;19;1307;-35
2024/01/07 06:42:48;;;;;;;;;;;;;;;18.87;66.81;99067.72;7390677;19;1499;-35
2024/01/07 06:45:19;;;;;;;;;;;;;;;18.91;66.58;99054.81;7391299;19;1819;-35
2024/01/07 06:47:48;;;;;;;;;;;;;;;18.92;66.50;99056.50;7392263;19;1741;-36
2024/01/07 06:50:16;;;;;;;;;;;;;;;18.82;66.52;99053.19;7391572;19;1410;-35
2024/01/07 06:52:44;;;;;;;;;;;;;;;19.27;66.13;99054.25;7376699;19;1856;-35
2024/01/07 06:55:13;;;;;;;;;;;;;;;19.41;65.34;99061.50;7391777;19;1557;-35
2024/01/07 06:57:41;;;;;;;;;;;;;;;19.43;65.62;99046.06;7390114;19;1515;-35
2024/01/07 07:00:10;;;;;;;;;;;;;;;19.22;66.38;99051.28;7390864;19;1425;-36
2024/01/07 07:02:41;;;;;;;;;;;;;;;19.03;66.94;99053.41;7390497;19;1559;-36
2024/01/07 07:05:10;;;;;;;;;;;;;;;19.02;67.16;99041.03;7389381;19;1445;-35
2024/01/07 07:07:38;;;;;;;;;;;;;;;18.98;67.37;99034.38;7392355;19;1494;-35
2024/01/07 07:10:07;;;;;;;;;;;;;;;19.00;67.41;99058.28;7391312;19;1521;-35
2024/01/07 07:12:35;;;;;;;;;;;;;;;19.06;67.44;99020.91;7388896;19;1859;-35
2024/01/07 07:15:03;;;;;;;;;;;;;;;19.42;66.79;99009.56;7388899;19;1540;-39
2024/01/07 07:17:32;;;;;;;;;;;;;;;19.66;65.97;99021.91;7390957;19;1153;-38
2024/01/07 07:20:03;;;;;;;;;;;;;;;19.92;65.05;99009.13;7392700;19;1143;-38
2024/01/07 07:22:31;;;;;;;;;;;;;;;19.83;65.19;99033.34;7391329;19;1014;-38
2024/01/07 07:25:00;;;;;;;;;;;;;;;19.62;66.17;99034.03;7390777;19;1449;-38
2024/01/07 07:27:28;;;;;;;;;;;;;;;19.48;66.40;99022.25;7390564;19;1493;-38
2024/01/07 07:29:56;;;;;;;;;;;;;;;19.37;66.86;99016.47;7391287;19;1769;-38
2024/01/07 07:32:25;;;;;;;;;;;;;;;19.52;66.81;99019.19;7389915;19;1865;-38
2024/01/07 07:34:53;;;;;;;;;;;;;;;19.35;66.62;99030.06;7388610;19;1500;-38
2024/01/07 07:37:25;;;;;;;;;;;;;;;19.16;67.05;99030.53;7388545;19;1504;-38
2024/01/07 07:39:53;;;;;;;;;;;;;;;19.17;67.22;99014.28;7390879;19;1124;-38
2024/01/07 07:42:21;;;;;;;;;;;;;;;19.45;66.91;99025.28;7390590;19;1512;-38
2024/01/07 07:44:50;;;;;;;;;;;;;;;19.67;66.02;99020.88;7390490;19;1569;-38
2024/01/07 07:47:18;;;;;;;;;;;;;;;19.58;66.37;99027.38;7388972;19;1243;-39
2024/01/07 07:49:47;;;;;;;;;;;;;;;19.58;66.78;99031.91;7389714;19;1343;-39
2024/01/07 07:52:15;;;;;;;;;;;;;;;19.58;66.73;99045.31;7375166;19;1845;-38
2024/01/07 07:54:46;;;;;;;;;;;;;;;19.58;66.72;99034.56;7388924;19;1221;-39
2024/01/07 07:57:14;;;;;;;;;;;;;;;19.60;66.63;99032.56;7389819;19;1572;-39
2024/01/07 07:59:43;;;;;;;;;;;;;;;19.65;66.62;99047.06;7390137;19;1200;-38
2024/01/07 08:02:11;;;;;;;;;;;;;;;19.58;66.64;99042.63;7389892;19;1572;-38
2024/01/07 08:04:41;;;;;;;;;;;;;;;19.53;66.83;99026.22;7383622;19;1243;-36
2024/01/07 08:07:09;;;;;;;;;;;;;;;19.62;66.67;99028.66;7386443;19;2370;-36
2024/01/07 08:09:38;;;;;;;;;;;;;;;19.75;65.94;99038.78;7391059;19;1365;-36
2024/01/07 08:12:11;;;;;;;;;;;;;;;19.86;65.29;99038.34;7389633;19;1588;-37
2024/01/07 08:14:40;;;;;;;;;;;;;;;19.80;65.45;99011.44;7389514;19;1208;-36
2024/01/07 08:17:09;;;;;;;;;;;;;;;19.70;65.64;99022.38;7391054;19;1843;-36
2024/01/07 08:19:38;;;;;;;;;;;;;;;19.97;64.52;99018.28;7390938;19;1818;-36
2024/01/07 08:22:07;;;;;;;;;;;;;;;19.90;64.49;99020.03;7388866;19;1924;-36
2024/01/07 08:24:35;;;;;;;;;;;;;;;19.70;65.10;99035.81;7389141;19;1422;-36
2024/01/07 08:27:04;;;;;;;;;;;;;;;19.59;65.20;99053.16;7390102;19;1753;-36
2024/01/07 08:29:35;;;;;;;;;;;;;;;19.38;64.81;99055.69;7388888;19;1635;-37
2024/01/07 08:32:03;;;;;;;;;;;;;;;19.47;64.90;99033.16;7389354;19;1233;-36
2024/01/07 08:34:31;;;;;;;;;;;;;;;19.56;65.73;99021.34;7387563;19;1845;-37
2024/01/07 08:37:00;;;;;;;;;;;;;;;19.57;65.54;99027.53;7388883;19;1501;-37
2024/01/07 08:39:29;;;;;;;;;;;;;;;19.57;65.16;99022.19;7388952;19;1600;-36
2024/01/07 08:41:57;;;;;;;;;;;;;;;19.46;65.30;99020.78;7388554;19;1782;-36
2024/01/07 08:44:25;;;;;;;;;;;;;;;19.29;65.76;99017.38;7389541;19;1528;-36
2024/01/07 08:46:57;;;;;;;;;;;;;;;19.12;66.14;99023.88;7387097;19;1414;-36
2024/01/07 08:49:25;;;;;;;;;;;;;;;19.22;66.18;99030.69;7391847;19;1489;-36
2024/01/07 08:51:55;;;;;;;;;;;;;;;19.26;66.75;99026.63;7380290;19;1145;-37
2024/01/07 08:54:24;;;;;;;;;;;;;;;19.18;66.71;99018.66;7393108;19;1873;-36
2024/01/07 08:56:52;;;;;;;;;;;;;;;19.17;66.69;98989.34;7395360;19;1814;-36
2024/01/07 08:59:20;;;;;;;;;;;;;;;19.04;66.89;98996.16;7396270;19;1615;-36
2024/01/07 09:01:49;;;;;;;;;;;;;;;19.30;66.94;99002.13;7397267;19;1409;-36
2024/01/07 09:04:20;;;;;;;;;;;;;;;19.34;66.92;99017.69;7397228;19;1454;-33
2024/01/07 09:06:48;;;;;;;;;;;;;;;19.15;67.29;99016.31;7399497;19;1480;-33
2024/01/07 09:09:17;;;;;;;;;;;;;;;19.20;67.34;99010.41;7397920;19;1588;-33
2024/01/07 09:11:46;;;;;;;;;;;;;;;19.16;67.37;99035.91;7399463;19;1805;-33
2024/01/07 09:14:14;;;;;;;;;;;;;;;19.15;67.48;99013.63;7397310;19;1826;-35
2024/01/07 09:16:42;;;;;;;;;;;;;;;19.43;67.24;99011.22;7397759;19;1845;-35
2024/01/07 09:19:12;;;;;;;;;;;;;;;19.64;66.43;98996.31;7397439;19;1493;-35
2024/01/07 09:21:43;;;;;;;;;;;;;;;19.44;67.69;99012.09;7399154;19;1476;-36
2024/01/07 09:24:12;;;;;;;;;;;;;;;19.37;67.37;99006.59;7396369;19;1608;-35
2024/01/07 09:26:40;;;;;;;;;;;;;;;19.15;67.85;98997.56;7394783;19;1166;-34
2024/01/07 09:29:08;;;;;;;;;;;;;;;19.02;68.27;98991.97;7391481;19;1446;-34
2024/01/07 09:31:36;;;;;;;;;;;;;;;19.00;68.52;99000.19;7393828;19;1374;-34
2024/01/07 09:34:06;;;;;;;;;;;;;;;19.02;68.50;99000.84;7393389;19;1847;-35
2024/01/07 09:36:35;;;;;;;;;;;;;;;19.08;68.42;99002.00;7395456;19;2332;-35
2024/01/07 09:39:07;;;;;;;;;;;;;;;19.16;68.20;99015.31;7394290;19;1270;-35
2024/01/07 09:41:36;;;;;;;;;;;;;;;19.19;68.16;99006.09;7393106;19;1238;-34
2024/01/07 09:44:04;;;;;;;;;;;;;;;19.39;67.61;99009.91;7394421;19;1499;-34
2024/01/07 09:46:35;;;;;;;;;;;;;;;19.43;67.89;99019.28;7394404;19;1394;-35
2024/01/07 09:49:03;;;;;;;;;;;;;;;19.43;67.33;99011.22;7395040;19;1500;-35
2024/01/07 09:51:31;;;;;;;;;;;;;;;19.44;67.22;99004.88;7393551;19;1307;-35
2024/01/07 09:54:05;;;;;;;;;;;;;;;19.45;67.00;99017.22;7379830;19;1843;-35
2024/01/07 09:56:39;;;;;;;;;;;;;;;19.38;67.15;99019.00;7395141;19;1117;-35
2024/01/07 09:59:08;;;;;;;;;;;;;;;19.73;66.63;99043.50;7391151;19;1465;-35
2024/01/07 10:01:37;;;;;;;;;;;;;;;19.86;66.62;99049.06;7393347;19;1779;-35
2024/01/07 10:04:05;;;;;;;;;;;;;;;20.07;66.55;99063.63;7392271;19;1508;-35
2024/01/07 10:06:34;;;;;;;;;;;;;;;20.07;66.73;99082.41;7392556;19;1526;-35
2024/01/07 10:09:02;;;;;;;;;;;;;;;19.80;66.82;99062.41;7392795;19;1429;-35
2024/01/07 10:11:30;;;;;;;;;;;;;;;19.69;67.12;99085.06;7391805;19;1326;-35
2024/01/07 10:14:02;;;;;;;;;;;;;;;19.89;67.63;99085.44;7390993;19;1841;-35
2024/01/07 10:16:32;;;;;;;;;;;;;;;20.13;67.14;99087.03;7394405;19;1608;-35
2024/01/07 10:19:00;;;;;;;;;;;;;;;20.13;67.53;99078.16;7392918;19;1500;-35
2024/01/07 10:21:28;;;;;;;;;;;;;;;20.18;67.91;99067.72;7391118;19;1434;-35
2024/01/07 10:24:09;;;;;;;;;;;;;;;20.11;68.17;99077.50;7389807;19;1816;-35
2024/01/07 10:26:37;;;;;;;;;;;;;;;20.01;68.69;99080.44;7390442;19;1402;-35
2024/01/07 10:29:08;;;;;;;;;;;;;;;19.58;68.78;99072.13;7391949;19;1497;-35
2024/01/07 10:31:37;;;;;;;;;;;;;;;19.70;67.84;99059.94;7392612;19;1289;-35
2024/01/07 10:34:05;;;;;;;;;;;;;;;19.62;67.63;99070.75;7389471;19;1851;-35
2024/01/07 10:36:34;;;;;;;;;;;;;;;19.36;68.13;99071.09;7390277;19;1745;-35
2024/01/07 10:39:03;;;;;;;;;;;;;;;19.16;68.83;99063.56;7393707;19;1097;-35
2024/01/07 10:41:31;;;;;;;;;;;;;;;19.11;68.98;99070.44;7387993;19;1553;-35
2024/01/07 10:44:00;;;;;;;;;;;;;;;19.00;69.46;99074.34;7388228;19;1492;-35
2024/01/07 10:46:31;;;;;;;;;;;;;;;18.88;69.58;99057.88;7386710;19;1621;-35
2024/01/07 10:49:02;;;;;;;;;;;;;;;18.91;69.62;99070.91;7391641;19;1437;-35
2024/01/07 10:51:30;;;;;;;;;;;;;;;18.98;69.28;99058.47;7393081;19;1450;-35
2024/01/07 10:53:59;;;;;;;;;;;;;;;19.25;68.58;99061.63;7377512;19;1843;-35
2024/01/07 10:56:28;;;;;;;;;;;;;;;19.61;67.65;99061.00;7391770;19;1209;-35
2024/01/07 10:58:57;;;;;;;;;;;;;;;19.51;67.59;99058.56;7392885;19;1671;-35
2024/01/07 11:01:26;;;;;;;;;;;;;;;19.26;67.92;99053.41;7391090;19;1524;-35
2024/01/07 11:04:00;;;;;;;;;;;;;;;19.07;68.55;99051.22;7391332;19;1592;-35
2024/01/07 11:06:30;;;;;;;;;;;;;;;18.97;68.89;99047.94;7390489;19;1589;-35
2024/01/07 11:09:03;;;;;;;;;;;;;;;18.86;69.37;99046.47;7390888;19;1237;-35
2024/01/07 11:11:38;;;;;;;;;;;;;;;18.93;69.74;99050.13;7388880;19;1450;-34
2024/01/07 11:14:06;;;;;;;;;;;;;;;19.20;69.40;99047.94;7391661;19;1857;-34
2024/01/07 11:16:44;;;;;;;;;;;;;;;19.26;69.56;99041.88;7390484;19;1497;-35
2024/01/07 11:19:18;;;;;;;;;;;;;;;19.18;69.53;99055.31;7389832;19;1446;-35
2024/01/07 11:21:46;;;;;;;;;;;;;;;18.98;69.99;99042.41;7389306;19;1339;-35
2024/01/07 11:24:40;;;;;;;;;;;;;;;18.81;71.00;99049.69;7392001;19;1244;-34
2024/01/07 11:27:10;;;;;;;;;;;;;;;18.74;70.63;99048.72;7392076;19;1541;-35
2024/01/07 11:29:39;;;;;;;;;;;;;;;18.73;71.18;99041.66;7391336;19;1148;-35
2024/01/07 11:32:08;;;;;;;;;;;;;;;18.86;70.65;99046.47;7390770;19;1667;-35
2024/01/07 11:34:49;;;;;;;;;;;;;;;19.02;70.59;99056.25;7389894;19;1835;-34
2024/01/07 11:37:17;;;;;;;;;;;;;;;19.16;70.23;99052.84;7389213;19;1394;-35
2024/01/07 11:39:46;;;;;;;;;;;;;;;19.05;70.26;99040.66;7392461;19;1251;-35
2024/01/07 11:42:15;;;;;;;;;;;;;;;18.92;71.12;99045.78;7390396;19;1583;-35
2024/01/07 11:44:48;;;;;;;;;;;;;;;18.77;71.16;99039.47;7388332;19;1552;-35
2024/01/07 11:47:16;;;;;;;;;;;;;;;18.66;70.75;99038.88;7388430;19;2439;-34
2024/01/07 11:49:47;;;;;;;;;;;;;;;18.87;69.06;99032.09;7388671;19;1394;-35
2024/01/07 11:52:17;;;;;;;;;;;;;;;19.05;67.95;99046.03;7390421;19;1405;-35
2024/01/07 11:54:46;;;;;;;;;;;;;;;19.18;67.45;99033.88;7372588;19;1839;-37
2024/01/07 11:57:14;;;;;;;;;;;;;;;19.33;67.02;99042.81;7389942;19;1180;-37
2024/01/07 11:59:42;;;;;;;;;;;;;;;19.18;67.49;99050.81;7389580;19;1939;-37
2024/01/07 12:02:11;;;;;;;;;;;;;;;18.96;67.92;99049.78;7388834;19;1563;-35
2024/01/07 12:04:39;;;;;;;;;;;;;;;19.01;68.36;99036.69;7388633;19;1047;-35
2024/01/07 12:07:14;;;;;;;;;;;;;;;19.26;68.08;99042.69;7389631;19;1186;-35
2024/01/07 12:09:42;;;;;;;;;;;;;;;19.51;67.77;99034.44;7389423;19;1769;-35
2024/01/07 12:12:11;;;;;;;;;;;;;;;19.64;67.17;99029.31;7389474;19;1782;-35
2024/01/07 12:14:40;;;;;;;;;;;;;;;19.41;67.83;99029.34;7388596;19;1859;-35
2024/01/07 12:17:11;;;;;;;;;;;;;;;19.15;68.74;99028.88;7390903;19;1841;-35
2024/01/07 12:19:37;;;;;;;;;;;;;;;18.99;69.13;99027.97;7389662;19;1823;-35
2024/01/07 12:22:05;;;;;;;;;;;;;;;19.24;68.43;99041.22;7389222;19;1528;-35
2024/01/07 12:24:36;;;;;;;;;;;;;;;19.34;68.05;99036.44;7392036;19;1614;-35
2024/01/07 12:27:06;;;;;;;;;;;;;;;19.45;67.16;99030.63;7394974;19;1809;-35
2024/01/07 12:29:35;;;;;;;;;;;;;;;19.35;67.63;99035.41;7395574;19;1754;-35
2024/01/07 12:32:04;;;;;;;;;;;;;;;19.14;67.92;99032.56;7395985;19;1872;-35
2024/01/07 12:34:32;;;;;;;;;;;;;;;19.00;68.25;99035.03;7395851;19;1854;-35
2024/01/07 12:37:01;;;;;;;;;;;;;;;19.11;67.39;99035.63;7392959;19;1437;-37
2024/01/07 12:39:30;;;;;;;;;;;;;;;19.35;66.57;99043.47;7397516;19;1147;-38
2024/01/07 12:42:01;;;;;;;;;;;;;;;19.50;66.16;99053.38;6875478;19;10000628;-36
2024/01/07 12:44:32;;;;;;;;;;;;;;;19.30;66.25;99039.66;7386345;19;1505;-35
2024/01/07 12:47:02;;;;;;;;;;;;;;;19.10;66.32;99055.38;7385256;19;1471;-35
2024/01/07 12:49:30;;;;;;;;;;;;;;;18.94;67.25;99057.16;7390074;19;1725;-35
2024/01/07 12:51:58;;;;;;;;;;;;;;;19.03;66.88;99055.25;7389829;19;1453;-35
2024/01/07 12:54:26;;;;;;;;;;;;;;;19.22;66.07;99070.88;7373971;19;1841;-35
2024/01/07 12:56:55;;;;;;;;;;;;;;;19.35;65.74;99072.94;7390581;19;1674;-35
2024/01/07 12:59:26;;;;;;;;;;;;;;;19.30;65.74;99096.78;7389201;19;1780;-35
2024/01/07 13:01:54;;;;;;;;;;;;;;;19.12;66.39;99061.38;7390360;19;1670;-35
2024/01/07 13:04:22;;;;;;;;;;;;;;;18.95;66.67;99074.06;7388309;19;1901;-36
2024/01/07 13:06:51;;;;;;;;;;;;;;;19.02;66.66;99067.81;7385324;19;1441;-35